Time;durP1;ratioP1;P1;durP2;ratioP2;P2;SDS_P1;SDS_P2;PMS_P1;PMS_P2;Temp;Humidity;BMP_temperature;BMP_pressure;BME280_temperature;BME280_humidity;BME280_pressure;Samples;Min_cycle;Max_cycle;Signal;HPM_P1;HPM_P2
2021/08/01 00:01:06;;;;;;;1.90;1.67;;;;;;;13.90;90.41;100072.91;5000112;28;20661;-74
2021/08/01 00:03:33;;;;;;;1.70;1.50;;;;;;;13.91;91.14;100082.44;5002188;28;20224;-74
2021/08/01 00:06:01;;;;;;;3.17;1.57;;;;;;;13.95;93.27;100081.38;5000583;28;20233;-74
2021/08/01 00:08:27;;;;;;;4.80;1.50;;;;;;;13.93;91.96;100076.22;5002339;28;20207;-74
2021/08/01 00:10:57;;;;;;;1.50;1.40;;;;;;;14.04;93.97;100088.78;5000462;28;20678;-74
2021/08/01 00:13:23;;;;;;;3.77;1.70;;;;;;;14.04;94.45;100085.34;4999025;28;20223;-74
2021/08/01 00:15:50;;;;;;;1.40;1.30;;;;;;;13.95;93.01;100081.38;4997407;28;20216;-74
2021/08/01 00:18:16;;;;;;;3.00;1.67;;;;;;;14.03;94.78;100073.97;5001929;28;20210;-74
2021/08/01 00:20:44;;;;;;;2.73;1.60;;;;;;;14.01;93.16;100073.22;5000911;28;20295;-74
2021/08/01 00:23:12;;;;;;;4.87;1.47;;;;;;;14.07;96.27;100070.31;5000022;28;20321;-74
2021/08/01 00:25:39;;;;;;;2.10;1.60;;;;;;;13.97;94.11;100074.28;5002357;28;20321;-74
2021/08/01 00:28:05;;;;;;;2.03;1.83;;;;;;;13.95;92.16;100090.09;5003410;28;20197;-74
2021/08/01 00:30:32;;;;;;;2.70;1.73;;;;;;;14.00;93.74;100093.34;5000108;28;20699;-74
2021/08/01 00:32:59;;;;;;;3.80;1.80;;;;;;;14.01;94.62;100086.31;5017025;28;21121;-74
2021/08/01 00:35:25;;;;;;;1.77;1.67;;;;;;;14.07;96.13;100078.16;5003395;28;20214;-74
2021/08/01 00:37:52;;;;;;;2.97;1.90;;;;;;;14.08;95.64;100069.34;5001850;28;20628;-74
2021/08/01 00:40:22;;;;;;;2.17;1.93;;;;;;;14.07;95.67;100066.81;5000094;28;20253;-74
2021/08/01 00:42:49;;;;;;;3.83;1.80;;;;;;;14.00;94.94;100087.22;5000826;28;20219;-74
2021/08/01 00:45:16;;;;;;;3.57;1.70;;;;;;;14.02;96.60;100075.75;4998264;28;20242;-74
2021/08/01 00:47:43;;;;;;;1.87;1.60;;;;;;;13.95;94.31;100082.22;5001835;28;20306;-74
2021/08/01 00:50:12;;;;;;;4.57;1.60;;;;;;;13.97;96.34;100075.13;5017773;22;20259;-69
2021/08/01 00:52:40;;;;;;;1.90;1.70;;;;;;;13.85;94.79;100067.88;4978632;28;20208;-70
2021/08/01 00:55:09;;;;;;;4.50;1.57;;;;;;;13.81;95.03;100064.53;4999527;28;20212;-71
2021/08/01 00:57:38;;;;;;;2.27;1.43;;;;;;;13.79;96.81;100057.66;4997521;28;20210;-71
2021/08/01 01:00:13;;;;;;;1.53;1.43;;;;;;;13.75;96.59;100049.13;5005739;28;20322;-71
2021/08/01 01:02:43;;;;;;;2.37;1.43;;;;;;;13.83;97.12;100054.00;4995648;28;20339;-71
2021/08/01 01:05:18;;;;;;;3.20;1.60;;;;;;;13.79;97.21;100052.44;5001493;28;20641;-71
2021/08/01 01:07:50;;;;;;;1.50;1.40;;;;;;;13.72;96.25;100051.03;4981275;28;20263;-71
2021/08/01 01:10:40;;;;;;;1.77;1.43;;;;;;;13.71;96.53;100041.50;4995006;28;20571;-70
2021/08/01 01:13:27;;;;;;;2.47;1.40;;;;;;;13.59;95.17;100042.91;5003759;28;20210;-71
2021/08/01 01:15:56;;;;;;;1.60;1.50;;;;;;;13.63;96.31;100041.84;4998375;28;20210;-71
2021/08/01 01:18:27;;;;;;;1.60;1.50;;;;;;;13.44;93.27;100047.13;4996702;28;20201;-70
2021/08/01 01:21:05;;;;;;;1.77;1.40;;;;;;;13.56;99.53;100037.81;4979734;28;20278;-71
2021/08/01 01:23:39;;;;;;;2.80;1.50;;;;;;;13.47;97.67;100036.50;5003302;28;20398;-71
2021/08/01 01:26:19;;;;;;;1.60;1.50;;;;;;;13.41;95.97;100039.41;4996033;28;20596;-71
2021/08/01 01:28:53;;;;;;;2.40;1.73;;;;;;;13.53;100.00;100030.97;5001170;28;20209;-70
2021/08/01 01:31:27;;;;;;;2.30;1.50;;;;;;;13.46;96.11;100041.81;4982284;28;20228;-70
2021/08/01 01:34:06;;;;;;;2.47;1.80;;;;;;;13.38;94.87;100050.88;4979585;28;20708;-71
2021/08/01 01:36:35;;;;;;;1.80;1.53;;;;;;;13.55;99.28;100044.84;4997076;28;20251;-71
2021/08/01 01:39:05;;;;;;;2.93;1.70;;;;;;;13.59;100.00;100056.03;4977860;28;21080;-70
2021/08/01 01:41:50;;;;;;;2.60;1.60;;;;;;;13.51;98.35;100058.13;4986042;28;20204;-69
2021/08/01 01:44:21;;;;;;;2.23;1.50;;;;;;;13.35;96.51;100071.09;4997501;28;20205;-70
2021/08/01 01:46:48;;;;;;;1.70;1.60;;;;;;;13.38;96.39;100063.97;4989966;28;20236;-70
2021/08/01 01:49:16;;;;;;;1.70;1.60;;;;;;;13.47;99.32;100067.06;4979441;28;20263;-70
2021/08/01 01:51:53;;;;;;;2.17;1.90;;;;;;;13.45;99.10;100085.47;4998413;28;20299;-70
2021/08/01 01:54:23;;;;;;;3.30;1.80;;;;;;;13.39;97.22;100078.75;4983063;28;20296;-71
2021/08/01 01:56:52;;;;;;;2.03;1.70;;;;;;;13.43;98.58;100069.81;4989070;28;20214;-71
2021/08/01 01:59:19;;;;;;;2.83;1.70;;;;;;;13.31;98.48;100077.38;4999088;28;20206;-70
2021/08/01 02:01:45;;;;;;;3.10;1.90;;;;;;;13.43;99.84;100082.94;5003757;28;20297;-71
2021/08/01 02:04:12;;;;;;;2.33;1.57;;;;;;;13.24;96.83;100076.81;4998453;28;20238;-70
2021/08/01 02:06:59;;;;;;;3.23;1.80;;;;;;;13.30;98.49;100073.94;4997012;28;20340;-71
2021/08/01 02:09:46;;;;;;;1.50;1.40;;;;;;;13.40;100.00;100069.13;4987364;28;20225;-71
2021/08/01 02:12:27;;;;;;;2.33;1.67;;;;;;;13.29;98.30;100076.59;5000041;28;20443;-71
2021/08/01 02:14:59;;;;;;;2.47;1.80;;;;;;;13.32;100.00;100072.13;4988870;28;20237;-71
2021/08/01 02:17:31;;;;;;;2.30;1.67;;;;;;;13.30;99.10;100070.44;5003470;28;20303;-69
2021/08/01 02:20:01;;;;;;;1.90;1.70;;;;;;;13.29;100.00;100072.22;4983703;28;20229;-71
2021/08/01 02:22:32;;;;;;;2.20;1.87;;;;;;;13.22;99.24;100068.19;4990606;28;20234;-71
2021/08/01 02:25:01;;;;;;;1.97;1.77;;;;;;;13.39;100.00;100060.44;5005365;28;20285;-70
2021/08/01 02:27:32;;;;;;;2.27;1.70;;;;;;;13.31;100.00;100065.16;4996714;28;20198;-71
2021/08/01 02:30:01;;;;;;;2.87;1.90;;;;;;;13.27;99.87;100069.66;5006743;28;20326;-71
2021/08/01 02:32:31;;;;;;;2.23;2.03;;;;;;;13.27;100.00;100074.91;4988726;28;20192;-70
2021/08/01 02:34:59;;;;;;;1.97;1.77;;;;;;;13.22;100.00;100068.19;5001087;28;20210;-71
2021/08/01 02:37:27;;;;;;;3.90;2.07;;;;;;;13.23;100.00;100065.50;5000586;28;20227;-71
2021/08/01 02:39:56;;;;;;;3.80;1.87;;;;;;;13.13;99.22;100068.63;5002275;28;20238;-71
2021/08/01 02:42:23;;;;;;;4.90;1.90;;;;;;;13.06;99.58;100066.25;4980990;28;20467;-71
2021/08/01 02:44:55;;;;;;;1.83;1.60;;;;;;;13.22;100.00;100069.03;5002792;28;20860;-71
2021/08/01 02:47:24;;;;;;;1.93;1.73;;;;;;;13.28;100.00;100067.91;4998837;28;20726;-71
2021/08/01 02:49:54;;;;;;;2.23;2.00;;;;;;;13.26;100.00;100072.34;5000560;28;20245;-71
2021/08/01 02:52:25;;;;;;;2.23;1.63;;;;;;;13.20;100.00;100068.25;5010671;28;20651;-71
2021/08/01 02:54:54;;;;;;;2.03;1.80;;;;;;;13.29;100.00;100071.38;4988612;28;20295;-70
2021/08/01 02:57:25;;;;;;;2.83;2.07;;;;;;;13.25;100.00;100068.88;4990664;28;20213;-71
2021/08/01 02:59:53;;;;;;;2.40;1.83;;;;;;;13.14;100.00;100068.53;4998795;28;20234;-71
2021/08/01 03:02:20;;;;;;;4.77;2.00;;;;;;;13.02;99.82;100062.09;5004947;28;20756;-71
2021/08/01 03:04:55;;;;;;;2.50;2.00;;;;;;;13.39;100.00;100054.34;4984870;28;20211;-71
2021/08/01 03:07:22;;;;;;;2.17;1.57;;;;;;;13.37;100.00;100053.59;5004123;28;20478;-70
2021/08/01 03:09:52;;;;;;;2.07;1.87;;;;;;;13.42;100.00;100051.56;4987672;28;20221;-71
2021/08/01 03:12:21;;;;;;;1.77;1.60;;;;;;;13.21;100.00;100050.78;5004402;28;20286;-71
2021/08/01 03:14:48;;;;;;;2.30;2.00;;;;;;;13.31;100.00;100052.06;4999307;28;20445;-71
2021/08/01 03:17:14;;;;;;;2.67;1.60;;;;;;;13.24;100.00;100050.63;5009134;28;20720;-71
2021/08/01 03:19:41;;;;;;;1.90;1.70;;;;;;;13.14;100.00;100042.38;5004079;28;20223;-70
2021/08/01 03:22:10;;;;;;;4.50;2.27;;;;;;;13.17;100.00;100042.22;4997664;28;20631;-71
2021/08/01 03:24:41;;;;;;;1.77;1.67;;;;;;;13.14;100.00;100039.75;5005884;28;20206;-70
2021/08/01 03:27:15;;;;;;;3.67;1.90;;;;;;;13.21;100.00;100049.03;4998749;28;20624;-71
2021/08/01 03:29:45;;;;;;;3.53;2.20;;;;;;;13.26;100.00;100040.94;5004940;28;20258;-71
2021/08/01 03:32:18;;;;;;;2.93;2.30;;;;;;;13.22;100.00;100045.47;4982827;28;20312;-70
2021/08/01 03:34:46;;;;;;;3.80;1.90;;;;;;;13.35;100.00;100037.94;5001979;28;20217;-71
2021/08/01 03:37:12;;;;;;;2.20;2.00;;;;;;;13.41;100.00;100034.19;4984104;28;20214;-71
2021/08/01 03:39:57;;;;;;;2.63;1.90;;;;;;;13.29;100.00;100043.41;5002858;28;20232;-70
2021/08/01 03:42:24;;;;;;;2.93;2.00;;;;;;;13.29;100.00;100040.78;4997898;28;20242;-70
2021/08/01 03:44:52;;;;;;;2.87;2.10;;;;;;;13.31;100.00;100041.59;4998901;28;20207;-71
2021/08/01 03:47:18;;;;;;;2.43;1.90;;;;;;;13.41;100.00;100036.78;5000211;28;20228;-71
2021/08/01 03:49:45;;;;;;;3.20;2.30;;;;;;;13.39;100.00;100028.16;5002493;28;20230;-70
2021/08/01 03:52:12;;;;;;;2.20;1.90;;;;;;;13.47;100.00;100033.88;5002369;28;20209;-70
2021/08/01 03:54:38;;;;;;;2.57;1.83;;;;;;;13.46;100.00;100037.44;5005178;28;20209;-69
2021/08/01 03:57:05;;;;;;;3.37;1.97;;;;;;;13.53;100.00;100035.38;5000734;28;20611;-70
2021/08/01 03:59:34;;;;;;;2.30;2.07;;;;;;;13.62;100.00;100041.00;5002853;28;20240;-70
2021/08/01 04:02:02;;;;;;;3.93;1.73;;;;;;;13.50;99.59;100043.38;5000075;28;20204;-70
2021/08/01 04:04:29;;;;;;;2.17;1.97;;;;;;;13.44;97.72;100040.13;4996795;28;20228;-71
2021/08/01 04:06:55;;;;;;;3.13;1.93;;;;;;;13.46;98.37;100040.06;4996483;28;20303;-70
2021/08/01 04:09:22;;;;;;;2.10;1.90;;;;;;;13.52;99.25;100044.13;5002284;28;20860;-71
2021/08/01 04:11:48;;;;;;;2.53;2.03;;;;;;;13.67;100.00;100032.94;5000509;28;20293;-71
2021/08/01 04:14:14;;;;;;;3.57;2.50;;;;;;;13.85;100.00;100031.19;4997608;28;20204;-71
2021/08/01 04:16:41;;;;;;;2.53;2.03;;;;;;;13.89;100.00;100032.72;5004654;28;20203;-70
2021/08/01 04:19:10;;;;;;;2.57;1.83;;;;;;;13.87;99.61;100039.81;5002001;28;20723;-71
2021/08/01 04:21:38;;;;;;;3.23;2.20;;;;;;;13.95;100.00;100032.44;5001141;28;20317;-70
2021/08/01 04:24:05;;;;;;;2.30;2.10;;;;;;;13.92;99.41;100040.44;4999561;28;20219;-70
2021/08/01 04:26:31;;;;;;;2.30;1.93;;;;;;;13.89;98.09;100032.72;5003263;28;20337;-71
2021/08/01 04:28:58;;;;;;;2.73;2.27;;;;;;;14.03;98.43;100032.03;4997168;28;20202;-71
2021/08/01 04:31:24;;;;;;;2.87;1.90;;;;;;;14.13;100.00;100037.69;4996792;28;20346;-71
2021/08/01 04:33:51;;;;;;;2.60;2.10;;;;;;;14.07;97.95;100038.84;4999295;28;20204;-71
2021/08/01 04:36:19;;;;;;;2.60;2.10;;;;;;;14.14;98.45;100037.63;5002057;28;20349;-70
2021/08/01 04:38:45;;;;;;;2.60;2.00;;;;;;;14.04;94.71;100041.63;5001108;28;20197;-70
2021/08/01 04:41:12;;;;;;;5.43;2.30;;;;;;;14.26;97.69;100036.13;4995485;28;20777;-71
2021/08/01 04:43:38;;;;;;;2.23;1.97;;;;;;;14.35;97.19;100040.91;4997760;28;20497;-70
2021/08/01 04:46:04;;;;;;;2.47;2.00;;;;;;;14.25;96.02;100042.31;4998337;28;20304;-70
2021/08/01 04:48:31;;;;;;;3.00;2.00;;;;;;;14.29;97.36;100043.84;4997958;28;20208;-71
2021/08/01 04:50:57;;;;;;;2.30;2.10;;;;;;;14.25;96.86;100046.69;4995678;28;20238;-71
2021/08/01 04:53:25;;;;;;;2.00;1.80;;;;;;;14.20;96.32;100045.16;4995594;28;20682;-71
2021/08/01 04:55:53;;;;;;;2.43;1.90;;;;;;;14.29;98.50;100053.50;4997923;28;20263;-70
2021/08/01 04:58:19;;;;;;;3.57;2.23;;;;;;;14.32;96.82;100054.19;5000380;28;20671;-71
2021/08/01 05:00:46;;;;;;;2.30;2.10;;;;;;;14.39;97.53;100054.72;4998012;28;20710;-70
2021/08/01 05:03:12;;;;;;;2.27;1.90;;;;;;;14.39;97.13;100063.44;4997271;28;20220;-71
2021/08/01 05:05:43;;;;;;;3.37;2.13;;;;;;;14.51;98.56;100063.72;4997511;28;20666;-70
2021/08/01 05:08:09;;;;;;;2.50;2.10;;;;;;;14.49;97.02;100065.56;4994165;28;20690;-71
2021/08/01 05:10:37;;;;;;;2.30;1.90;;;;;;;14.53;96.43;100067.97;4993410;28;20597;-71
2021/08/01 05:13:06;;;;;;;2.17;1.97;;;;;;;14.57;94.47;100074.75;4997061;28;20202;-69
2021/08/01 05:15:32;;;;;;;2.40;2.00;;;;;;;14.61;92.88;100077.25;5000146;28;20292;-70
2021/08/01 05:17:59;;;;;;;2.73;1.90;;;;;;;14.69;94.14;100078.56;4987301;28;20217;-70
2021/08/01 05:20:25;;;;;;;2.20;2.00;;;;;;;14.80;96.12;100075.38;4997973;28;20337;-70
2021/08/01 05:22:51;;;;;;;2.27;1.90;;;;;;;14.80;95.26;100080.63;4996942;28;20207;-71
2021/08/01 05:25:18;;;;;;;2.77;1.97;;;;;;;14.87;94.11;100087.22;4998766;28;20299;-70
2021/08/01 05:27:45;;;;;;;3.00;2.33;;;;;;;14.93;93.27;100084.31;4998949;28;20587;-71
2021/08/01 05:30:12;;;;;;;3.37;2.13;;;;;;;15.02;92.58;100080.34;4985067;28;20529;-71
2021/08/01 05:32:38;;;;;;;3.20;2.20;;;;;;;15.06;91.97;100081.03;5002395;28;20200;-70
2021/08/01 05:35:06;;;;;;;3.13;2.17;;;;;;;15.17;92.00;100083.91;4999616;28;20624;-70
2021/08/01 05:37:32;;;;;;;2.40;1.80;;;;;;;15.27;91.52;100085.13;4997713;28;20205;-70
2021/08/01 05:39:58;;;;;;;3.00;1.97;;;;;;;15.36;91.10;100090.81;4993797;28;20233;-70
2021/08/01 05:42:25;;;;;;;2.37;1.87;;;;;;;15.38;89.64;100084.53;4995087;28;20417;-70
2021/08/01 05:44:53;;;;;;;3.40;2.10;;;;;;;15.43;90.19;100077.25;5001544;28;20707;-71
2021/08/01 05:47:19;;;;;;;2.13;1.90;;;;;;;15.50;89.16;100072.50;5005421;28;20202;-70
2021/08/01 05:49:45;;;;;;;2.27;2.03;;;;;;;15.59;89.13;100071.16;5001022;28;20677;-70
2021/08/01 05:52:14;;;;;;;5.63;2.03;;;;;;;15.59;89.44;100069.38;5004980;28;20213;-71
2021/08/01 05:54:41;;;;;;;3.37;1.87;;;;;;;15.55;88.37;100075.72;5000831;28;20755;-71
2021/08/01 05:57:07;;;;;;;2.57;2.07;;;;;;;15.61;89.16;100069.28;5005501;28;20705;-70
2021/08/01 05:59:33;;;;;;;2.53;1.90;;;;;;;15.64;90.72;100067.31;5000511;28;20715;-70
2021/08/01 06:02:01;;;;;;;2.33;2.10;;;;;;;15.66;91.36;100062.81;5002534;28;20527;-70
2021/08/01 06:04:28;;;;;;;3.30;2.10;;;;;;;15.72;90.06;100061.63;5007608;28;20752;-71
2021/08/01 06:06:54;;;;;;;2.10;1.80;;;;;;;15.79;89.80;100063.00;5001947;28;20693;-70
2021/08/01 06:09:20;;;;;;;3.73;1.93;;;;;;;15.84;90.59;100058.34;5009650;28;20315;-71
2021/08/01 06:11:47;;;;;;;2.70;1.97;;;;;;;15.86;89.77;100053.84;5001354;28;20563;-70
2021/08/01 06:14:13;;;;;;;2.80;2.20;;;;;;;15.90;88.65;100049.28;4989037;28;20398;-71
2021/08/01 06:16:39;;;;;;;2.60;1.70;;;;;;;16.04;89.51;100049.31;5001118;28;20226;-71
2021/08/01 06:19:07;;;;;;;3.40;2.37;;;;;;;15.97;85.87;100049.75;4988061;28;20200;-71
2021/08/01 06:21:33;;;;;;;2.17;1.90;;;;;;;16.13;88.12;100036.56;4999940;28;20209;-72
2021/08/01 06:24:00;;;;;;;3.43;2.10;;;;;;;16.09;87.40;100044.66;5005822;28;20236;-71
2021/08/01 06:26:26;;;;;;;2.10;1.90;;;;;;;16.09;87.29;100039.38;5000729;28;20219;-72
2021/08/01 06:28:52;;;;;;;2.37;1.90;;;;;;;16.13;89.40;100039.19;5003707;28;20208;-71
2021/08/01 06:31:19;;;;;;;3.87;1.90;;;;;;;16.10;86.58;100048.13;4999557;28;20228;-71
2021/08/01 06:33:45;;;;;;;2.17;1.97;;;;;;;16.09;87.65;100042.00;5006998;28;20619;-70
2021/08/01 06:36:15;;;;;;;2.40;2.03;;;;;;;16.08;87.65;100047.34;4999177;28;20212;-71
2021/08/01 06:38:43;;;;;;;2.93;1.93;;;;;;;16.07;86.33;100043.03;5004222;28;20218;-72
2021/08/01 06:41:10;;;;;;;2.20;2.00;;;;;;;16.06;86.60;100047.44;4981145;28;20229;-72
2021/08/01 06:43:36;;;;;;;3.70;2.10;;;;;;;16.07;87.60;100051.75;5004092;28;20846;-70
2021/08/01 06:46:03;;;;;;;2.30;2.10;;;;;;;16.17;88.03;100059.97;4998232;28;20216;-72
2021/08/01 06:48:29;;;;;;;3.53;2.10;;;;;;;16.15;87.77;100066.25;5002050;28;20204;-72
2021/08/01 06:50:56;;;;;;;2.37;2.17;;;;;;;16.24;88.06;100070.97;5015233;22;20233;-74
2021/08/01 06:53:23;;;;;;;1.90;1.80;;;;;;;16.25;87.09;100068.25;4989323;28;20920;-74
2021/08/01 06:55:50;;;;;;;2.13;1.93;;;;;;;16.43;88.81;100073.38;4996699;28;20209;-75
2021/08/01 06:58:19;;;;;;;2.33;2.13;;;;;;;16.46;87.64;100075.81;4987772;28;20264;-75
2021/08/01 07:00:46;;;;;;;3.87;1.90;;;;;;;16.46;86.11;100075.81;4992216;28;20200;-75
2021/08/01 07:03:13;;;;;;;3.20;2.03;;;;;;;16.46;86.77;100081.06;4989786;28;20205;-74
2021/08/01 07:05:39;;;;;;;2.30;2.10;;;;;;;16.45;86.48;100079.38;4987690;28;20225;-75
2021/08/01 07:08:06;;;;;;;3.57;2.23;;;;;;;16.53;87.53;100073.66;4986327;28;20217;-75
2021/08/01 07:10:33;;;;;;;3.40;2.13;;;;;;;16.49;85.75;100069.53;4995217;28;20821;-75
2021/08/01 07:13:02;;;;;;;4.17;2.23;;;;;;;16.58;87.54;100066.34;4985311;28;20788;-74
2021/08/01 07:15:29;;;;;;;2.50;2.30;;;;;;;16.60;87.03;100067.97;4986112;28;20205;-75
2021/08/01 07:17:56;;;;;;;3.40;1.97;;;;;;;16.64;86.39;100058.94;4983381;28;20237;-75
2021/08/01 07:20:23;;;;;;;3.03;2.30;;;;;;;16.68;86.13;100056.97;4970658;28;20248;-75
2021/08/01 07:22:50;;;;;;;2.40;2.03;;;;;;;16.72;84.88;100060.25;4987948;28;20568;-74
2021/08/01 07:25:17;;;;;;;3.40;2.33;;;;;;;16.73;83.82;100064.59;4993366;28;20220;-75
2021/08/01 07:27:45;;;;;;;2.90;2.20;;;;;;;16.79;85.18;100059.78;4985933;28;20249;-75
2021/08/01 07:30:13;;;;;;;2.17;1.97;;;;;;;16.86;85.41;100062.91;4987563;28;20216;-75
2021/08/01 07:32:39;;;;;;;3.17;2.10;;;;;;;17.00;87.32;100059.44;4986746;28;20316;-75
2021/08/01 07:35:06;;;;;;;4.03;2.00;;;;;;;16.89;83.78;100057.47;4981914;28;20202;-75
2021/08/01 07:37:33;;;;;;;2.47;2.10;;;;;;;16.90;82.78;100066.19;4985316;28;20332;-74
2021/08/01 07:39:59;;;;;;;2.40;2.00;;;;;;;16.93;83.93;100061.59;4988281;28;20564;-74
2021/08/01 07:42:25;;;;;;;3.07;2.33;;;;;;;17.02;83.13;100060.19;4987505;28;20320;-75
2021/08/01 07:44:54;;;;;;;4.37;2.43;;;;;;;17.02;81.44;100060.19;4966700;28;20606;-74
2021/08/01 07:47:21;;;;;;;2.50;2.20;;;;;;;17.10;83.29;100063.19;4987136;28;20236;-75
2021/08/01 07:49:49;;;;;;;2.57;2.37;;;;;;;17.12;82.65;100066.56;4987537;28;20468;-75
2021/08/01 07:52:16;;;;;;;2.67;2.20;;;;;;;17.21;82.29;100081.78;4987781;28;20660;-75
2021/08/01 07:54:43;;;;;;;3.40;2.40;;;;;;;17.34;82.02;100087.16;4965604;28;20202;-74
2021/08/01 07:57:23;;;;;;;3.30;2.27;;;;;;;17.42;79.51;100084.88;4985510;28;20829;-75
2021/08/01 07:59:49;;;;;;;4.20;2.40;;;;;;;17.49;79.57;100080.06;4985071;28;20296;-75
2021/08/01 08:02:17;;;;;;;2.70;2.20;;;;;;;17.54;81.92;100079.78;4985669;28;20620;-75
2021/08/01 08:04:44;;;;;;;3.43;2.40;;;;;;;17.63;81.62;100080.97;4983899;28;20308;-75
2021/08/01 08:07:11;;;;;;;2.87;2.20;;;;;;;17.68;79.50;100078.91;4985266;28;20204;-75
2021/08/01 08:09:37;;;;;;;3.23;2.33;;;;;;;17.83;81.16;100074.41;4983761;28;20764;-75
2021/08/01 08:12:04;;;;;;;2.40;2.10;;;;;;;17.88;80.45;100080.25;4981220;28;20725;-75
2021/08/01 08:14:31;;;;;;;2.63;2.20;;;;;;;18.00;79.05;100081.25;4984132;28;20404;-75
2021/08/01 08:16:58;;;;;;;2.60;2.03;;;;;;;18.09;77.81;100080.66;4991205;28;20568;-75
2021/08/01 08:19:27;;;;;;;3.23;2.20;;;;;;;18.20;79.87;100072.03;4986536;28;20216;-75
2021/08/01 08:21:53;;;;;;;2.53;2.17;;;;;;;18.24;79.07;100073.50;4984272;28;20225;-75
2021/08/01 08:24:20;;;;;;;3.80;2.00;;;;;;;18.37;79.31;100077.00;4982663;28;20225;-75
2021/08/01 08:26:46;;;;;;;2.63;2.13;;;;;;;18.42;76.69;100080.19;4985058;28;20214;-75
2021/08/01 08:29:12;;;;;;;2.47;2.03;;;;;;;18.49;76.67;100070.06;4985596;28;20236;-75
2021/08/01 08:31:39;;;;;;;3.17;2.13;;;;;;;18.45;76.92;100080.00;4985163;28;20236;-75
2021/08/01 08:34:05;;;;;;;1.93;1.70;;;;;;;18.37;75.53;100078.81;4979407;28;20233;-74
2021/08/01 08:36:33;;;;;;;3.03;2.10;;;;;;;18.42;77.85;100071.44;4983230;28;20214;-75
2021/08/01 08:38:59;;;;;;;1.97;1.80;;;;;;;18.49;75.58;100072.72;4979784;28;20673;-75
2021/08/01 08:41:27;;;;;;;2.73;1.80;;;;;;;18.55;76.11;100074.91;4985748;28;20232;-75
2021/08/01 08:43:53;;;;;;;3.33;1.73;;;;;;;18.55;76.85;100067.84;4983862;28;20567;-75
2021/08/01 08:46:20;;;;;;;1.77;1.67;;;;;;;18.55;75.48;100073.09;4987415;28;20229;-75
2021/08/01 08:48:47;;;;;;;2.20;1.40;;;;;;;18.47;75.66;100072.81;4981377;28;20205;-75
2021/08/01 08:51:14;;;;;;;2.83;1.70;;;;;;;18.42;76.05;100064.34;4980785;28;20232;-75
2021/08/01 08:53:48;;;;;;;2.60;1.50;;;;;;;18.43;74.61;100079.22;4987003;28;20211;-75
2021/08/01 08:56:16;;;;;;;3.20;1.60;;;;;;;18.48;74.40;100074.47;4982468;28;20797;-75
2021/08/01 08:58:43;;;;;;;2.47;1.60;;;;;;;18.50;74.81;100072.59;4990889;28;20198;-75
2021/08/01 09:01:10;;;;;;;1.50;1.40;;;;;;;18.58;77.42;100072.06;4979233;28;20233;-76
2021/08/01 09:03:36;;;;;;;2.57;1.30;;;;;;;18.63;76.13;100080.53;4986139;28;20211;-75
2021/08/01 09:06:04;;;;;;;1.70;1.40;;;;;;;18.63;75.92;100067.31;4964108;28;20233;-75
2021/08/01 09:08:30;;;;;;;1.33;1.20;;;;;;;18.63;76.12;100075.25;4979659;28;20197;-74
2021/08/01 09:10:58;;;;;;;1.60;1.43;;;;;;;18.74;75.84;100077.97;4982536;28;20216;-75
2021/08/01 09:13:47;;;;;;;1.33;1.20;;;;;;;18.70;74.45;100065.94;4988117;28;20225;-75
2021/08/01 09:16:15;;;;;;;1.27;1.10;;;;;;;18.71;73.53;100074.69;4983819;28;20217;-74
2021/08/01 09:18:41;;;;;;;2.70;1.50;;;;;;;18.77;73.50;100073.44;4984304;28;20658;-75
2021/08/01 09:21:08;;;;;;;3.10;1.50;;;;;;;18.86;75.01;100068.41;4983690;28;20232;-75
2021/08/01 09:23:36;;;;;;;1.93;1.43;;;;;;;18.93;75.31;100071.47;4987614;28;20220;-75
2021/08/01 09:26:05;;;;;;;2.67;1.70;;;;;;;18.87;75.14;100069.25;4985752;28;20222;-75
2021/08/01 09:28:32;;;;;;;2.63;1.77;;;;;;;18.86;75.67;100065.75;4986065;28;20213;-75
2021/08/01 09:31:01;;;;;;;1.60;1.50;;;;;;;18.98;74.62;100058.78;4984609;28;20209;-75
2021/08/01 09:33:45;;;;;;;2.20;1.57;;;;;;;19.10;75.39;100057.91;4977871;28;20198;-74
2021/08/01 09:36:13;;;;;;;1.90;1.50;;;;;;;19.09;75.58;100053.56;4986232;28;20528;-74
2021/08/01 09:38:47;;;;;;;1.53;1.30;;;;;;;19.06;75.94;100053.78;4978530;28;20210;-76
2021/08/01 09:41:18;;;;;;;1.77;1.43;;;;;;;19.05;76.37;100056.53;4965294;28;20291;-76
2021/08/01 09:43:46;;;;;;;1.50;1.40;;;;;;;19.19;75.93;100066.13;4982393;28;20209;-76
2021/08/01 09:46:13;;;;;;;4.07;1.70;;;;;;;19.15;73.71;100068.16;4966939;28;20712;-75
2021/08/01 09:48:39;;;;;;;2.87;1.33;;;;;;;19.26;76.95;100062.97;4982385;28;20267;-75
2021/08/01 09:51:07;;;;;;;2.10;1.50;;;;;;;19.33;75.34;100068.66;4982308;28;20239;-74
2021/08/01 09:53:35;;;;;;;2.63;1.30;;;;;;;19.24;74.23;100069.28;4980383;28;20213;-74
2021/08/01 09:56:12;;;;;;;2.27;1.50;;;;;;;19.25;75.62;100073.63;4986334;28;21776;-75
2021/08/01 09:58:41;;;;;;;3.70;1.67;;;;;;;19.27;76.26;100071.72;4979559;28;20232;-75
2021/08/01 10:01:07;;;;;;;1.50;1.40;;;;;;;19.21;74.36;100075.66;4983370;28;20217;-74
2021/08/01 10:03:35;;;;;;;1.63;1.50;;;;;;;19.24;76.03;100077.22;4982843;28;20308;-75
2021/08/01 10:06:10;;;;;;;1.50;1.40;;;;;;;19.38;76.84;100074.44;4983958;28;20803;-75
2021/08/01 10:08:38;;;;;;;3.57;1.73;;;;;;;19.44;78.75;100068.72;4984501;28;20205;-75
2021/08/01 10:11:16;;;;;;;2.87;1.50;;;;;;;19.46;78.18;100069.44;4960335;28;20229;-76
2021/08/01 10:13:46;;;;;;;1.77;1.37;;;;;;;19.51;77.71;100077.06;4982509;28;20256;-75
2021/08/01 10:16:13;;;;;;;1.23;1.13;;;;;;;19.59;77.76;100073.84;4977599;28;20557;-75
2021/08/01 10:18:42;;;;;;;2.87;1.60;;;;;;;19.67;78.31;100069.69;4967798;28;20217;-74
2021/08/01 10:21:09;;;;;;;2.53;1.43;;;;;;;19.66;76.00;100075.94;4981792;28;20679;-75
2021/08/01 10:23:39;;;;;;;1.47;1.37;;;;;;;19.72;77.26;100072.00;4984797;28;20542;-74
2021/08/01 10:26:07;;;;;;;1.73;1.47;;;;;;;19.59;77.79;100072.03;4966089;28;20697;-76
2021/08/01 10:28:36;;;;;;;1.73;1.63;;;;;;;19.47;76.73;100080.84;4983663;28;20640;-75
2021/08/01 10:31:07;;;;;;;1.70;1.43;;;;;;;19.45;77.50;100077.47;4984992;28;20205;-75
2021/08/01 10:33:41;;;;;;;1.97;1.50;;;;;;;19.55;78.89;100070.56;4986621;28;20251;-75
2021/08/01 10:36:09;;;;;;;2.43;1.70;;;;;;;19.43;77.09;100074.09;4987210;28;20331;-75
2021/08/01 10:38:39;;;;;;;2.73;1.80;;;;;;;19.37;76.56;100078.03;4982681;28;20409;-75
2021/08/01 10:41:10;;;;;;;1.60;1.50;;;;;;;19.32;76.89;100066.97;4986247;28;20244;-74
2021/08/01 10:43:38;;;;;;;2.30;1.90;;;;;;;19.39;79.66;100070.00;4984744;28;20313;-76
2021/08/01 10:46:06;;;;;;;1.73;1.53;;;;;;;19.43;80.11;100072.31;4985197;28;20217;-75
2021/08/01 10:48:34;;;;;;;1.60;1.50;;;;;;;19.41;79.58;100065.44;4986359;28;20552;-74
2021/08/01 10:51:01;;;;;;;2.00;1.83;;;;;;;19.34;81.22;100065.03;4985641;28;20208;-75
2021/08/01 10:53:28;;;;;;;2.10;1.90;;;;;;;19.30;82.15;100060.94;4986224;28;20237;-75
2021/08/01 10:56:28;;;;;;;1.73;1.60;;;;;;;19.23;80.92;100067.63;4969807;28;20218;-75
2021/08/01 10:58:54;;;;;;;2.20;1.57;;;;;;;19.19;81.25;100061.72;4968768;28;20209;-75
2021/08/01 11:01:22;;;;;;;2.07;1.87;;;;;;;19.16;82.61;100063.72;4987842;28;20565;-74
2021/08/01 11:04:35;;;;;;;3.20;1.93;;;;;;;19.20;82.94;100060.75;4968178;28;20229;-76
2021/08/01 11:07:02;;;;;;;2.23;1.80;;;;;;;19.29;84.37;100056.59;4985393;28;20221;-74
2021/08/01 11:09:28;;;;;;;2.83;2.20;;;;;;;19.30;85.99;100056.50;4985938;28;20600;-75
2021/08/01 11:12:29;;;;;;;2.07;1.80;;;;;;;19.24;84.34;100058.72;4990279;28;20235;-75
2021/08/01 11:14:56;;;;;;;2.40;1.90;;;;;;;19.26;85.78;100065.59;4987612;28;20205;-74
2021/08/01 11:17:56;;;;;;;2.87;2.20;;;;;;;19.36;85.85;100067.56;4985419;28;20296;-75
2021/08/01 11:24:03;;;;;;;2.77;2.30;;;;;;;19.37;86.28;100066.63;5085536;27;1204029;-73
2021/08/01 11:26:30;;;;;;;2.60;2.37;;;;;;;19.37;86.62;100053.41;5112214;27;20308;-73
2021/08/01 11:29:08;;;;;;;2.43;2.20;;;;;;;19.47;87.56;100057.94;5123650;27;20215;-73
2021/08/01 11:31:35;;;;;;;4.00;2.00;;;;;;;19.49;86.86;100063.94;5117539;27;20214;-73
2021/08/01 11:34:18;;;;;;;3.03;2.20;;;;;;;19.32;88.20;100056.38;5120892;27;20201;-74
2021/08/01 11:36:45;;;;;;;2.73;2.30;;;;;;;19.41;90.17;100054.88;5114357;27;20207;-73